EST,Max TemperatureF,Mean TemperatureF,Min TemperatureF,Max Dew PointF,MeanDew PointF,Min DewpointF,Max Humidity, Mean Humidity, Min Humidity, Max Sea Level PressureIn, Mean Sea Level PressureIn, Min Sea Level PressureIn, Max VisibilityMiles, Mean VisibilityMiles, Min VisibilityMiles, Max Wind SpeedMPH, Mean Wind SpeedMPH, Max Gust SpeedMPH,PrecipitationIn, CloudCover, Events, WindDirDegrees
2014-2-1,46,34,22,24,21,18,81,59,37,30.33,30.21,30.02,10,8,5,12,2,17,0.00,0,,70
2014-2-2,43,33,23,34,29,20,88,81,73,30.11,30.00,29.94,10,6,4,10,3,14,T,5,Rain,313
2014-2-3,38,27,15,31,28,14,92,82,72,30.34,30.15,30.09,10,2,0,13,5,15,0.88,7,Fog-Snow,27
2014-2-4,34,19,4,21,13,3,100,74,47,30.49,30.39,30.22,10,8,2,12,2,14,T,1,,350
2014-2-5,37,32,27,32,27,17,96,80,63,30.25,29.94,29.66,10,4,1,28,9,37,1.30,8,Rain-Snow,33
2014-2-6,29,23,17,18,12,8,80,65,50,30.33,30.25,30.06,10,10,9,23,8,29,0.00,1,,300
2014-2-7,30,26,22,16,11,5,80,63,46,30.35,30.29,30.23,10,10,7,14,2,18,0.00,0,,240
2014-2-8,27,20,12,11,4,-2,67,53,38,30.35,30.28,30.19,10,10,10,7,0,9,T,3,,-1
2014-2-9,27,20,12,20,14,7,88,72,55,30.20,30.08,30.00,10,6,0,8,0,9,0.13,7,Fog-Snow,-1
2014-2-10,27,18,9,18,7,0,84,63,42,30.28,30.17,30.02,10,10,5,15,7,22,0.00,2,,285
2014-2-11,23,10,-3,3,0,-7,86,64,41,30.51,30.40,30.29,10,9,4,14,5,18,0.00,0,,313
2014-2-12,23,10,-4,14,3,-7,83,64,45,30.57,30.45,30.25,10,9,2,10,4,13,0.01,3,Snow,38
2014-2-13,36,28,19,31,25,14,92,85,78,30.25,29.61,29.16,10,1,0,30,17,37,1.21,8,Fog-Rain-Snow,34
2014-2-14,40,30,20,28,23,16,92,70,48,29.78,29.43,29.16,10,7,0,24,12,37,0.08,5,Fog-Snow,280
2014-2-15,34,28,21,29,25,10,92,73,53,29.85,29.71,29.63,10,4,0,24,9,32,0.19,8,Fog-Snow,7
2014-2-16,26,21,16,12,8,5,68,57,46,30.18,30.01,29.88,10,10,10,20,9,26,T,4,,290
2014-2-17,29,20,10,10,4,0,63,49,34,30.43,30.34,30.21,10,10,10,16,6,22,0.00,0,,290
2014-2-18,37,27,17,27,20,9,88,67,46,30.27,30.10,29.99,10,5,0,16,4,24,0.18,6,Snow,125
2014-2-19,45,31,16,32,26,14,89,73,57,30.09,29.88,29.70,10,4,1,20,5,25,0.34,5,Rain,50
2014-2-20,47,42,36,28,25,20,88,63,37,30.28,30.14,29.99,10,10,7,8,8,15,T,3,,249
2014-2-21,43,35,27,42,34,28,100,85,70,29.99,29.85,29.66,10,4,0,20,5,24,0.13,6,Fog-Rain,263
2014-2-22,49,37,24,27,23,20,88,61,34,30.05,30.00,29.94,10,10,5,23,8,30,0.00,0,,233
2014-2-23,49,36,22,30,25,19,88,65,42,30.03,29.96,29.86,10,10,10,18,4,25,T,3,,254
2014-2-24,39,33,26,29,14,9,75,56,36,30.11,29.97,29.86,10,10,10,23,12,31,0.00,4,,282
2014-2-25,30,23,16,13,11,8,67,57,46,30.11,30.03,29.97,10,10,2,21,9,27,T,4,,259
2014-2-26,28,19,10,17,6,-4,77,55,32,29.98,29.91,29.86,10,9,2,24,8,30,T,4,Snow,281
2014-2-27,28,16,3,13,1,-14,79,55,31,30.16,29.81,29.67,10,9,2,29,11,38,T,3,Snow,297
2014-2-28,21,13,4,0,-7,-13,69,50,31,30.43,30.36,30.19,10,10,10,15,5,20,0.00,0,Snow,280